Time;durP1;ratioP1;P1;durP2;ratioP2;P2;SDS_P1;SDS_P2;PMS_P1;PMS_P2;Temp;Humidity;BMP_temperature;BMP_pressure;BME280_temperature;BME280_humidity;BME280_pressure;Samples;Min_cycle;Max_cycle;Signal;HPM_P1;HPM_P2
2023/10/28 00:01:02;;;;;;;6.97;2.80;;;;;;;18.48;84.69;94170.28;4989039;28;20231;-77
2023/10/28 00:03:28;;;;;;;7.47;2.63;;;;;;;18.28;85.89;94172.09;4979249;28;20700;-70
2023/10/28 00:05:54;;;;;;;8.37;3.20;;;;;;;18.13;86.67;94175.53;4968313;28;20231;-70
2023/10/28 00:08:19;;;;;;;7.60;2.50;;;;;;;18.11;86.57;94175.78;5055604;28;20236;-70
2023/10/28 00:10:47;;;;;;;7.70;2.73;;;;;;;18.13;88.38;94186.91;4968818;28;20678;-77
2023/10/28 00:13:14;;;;;;;11.03;3.10;;;;;;;18.12;87.20;94193.28;4995932;28;20230;-77
2023/10/28 00:15:40;;;;;;;6.60;2.80;;;;;;;18.05;87.97;94189.31;5040918;28;20309;-77
2023/10/28 00:18:06;;;;;;;8.93;2.80;;;;;;;17.94;88.04;94185.84;5038015;28;20227;-76
2023/10/28 00:20:32;;;;;;;9.50;2.97;;;;;;;17.88;88.25;94181.59;4934891;28;20250;-78
2023/10/28 00:22:57;;;;;;;8.00;2.80;;;;;;;17.90;88.21;94181.31;5022386;28;20231;-77
2023/10/28 00:25:25;;;;;;;10.73;3.07;;;;;;;17.36;90.42;94186.97;5035120;28;20322;-76
2023/10/28 00:27:54;;;;;;;8.70;3.10;;;;;;;17.64;90.25;94182.34;5036206;28;20238;-78
2023/10/28 00:30:22;;;;;;;8.17;2.87;;;;;;;17.65;89.60;94189.22;5037164;28;20819;-78
2023/10/28 00:32:48;;;;;;;9.03;3.10;;;;;;;17.74;89.33;94188.47;5039463;28;20231;-77
2023/10/28 00:35:14;;;;;;;8.80;3.30;;;;;;;17.75;89.14;94194.53;4956614;28;20226;-78
2023/10/28 00:37:40;;;;;;;6.37;2.87;;;;;;;17.69;89.48;94185.78;4975558;28;20254;-77
2023/10/28 00:40:06;;;;;;;9.57;3.10;;;;;;;17.53;90.41;94191.31;4988371;28;20606;-77
2023/10/28 00:42:35;;;;;;;9.43;2.97;;;;;;;17.56;90.44;94194.22;5039836;28;20237;-77
2023/10/28 00:45:05;;;;;;;10.03;3.10;;;;;;;17.62;89.77;94193.19;5027737;28;20248;-77
2023/10/28 00:47:31;;;;;;;7.83;3.10;;;;;;;17.66;90.28;94193.44;4970366;28;20246;-78
2023/10/28 00:50:00;;;;;;;6.97;2.90;;;;;;;17.61;90.39;94193.44;4951963;28;20242;-77
2023/10/28 00:52:27;;;;;;;10.33;3.17;;;;;;;17.63;90.27;94197.41;5060311;28;20238;-78
2023/10/28 00:54:54;;;;;;;10.50;3.20;;;;;;;17.62;90.17;94201.13;4963996;28;20243;-77
2023/10/28 00:57:19;;;;;;;9.40;3.20;;;;;;;17.58;90.03;94194.75;4986893;28;20250;-78
2023/10/28 00:59:45;;;;;;;7.83;3.23;;;;;;;17.58;90.01;94204.56;4978588;28;20259;-77
2023/10/28 01:02:11;;;;;;;11.27;3.10;;;;;;;17.45;90.90;94201.31;5059407;28;20638;-76
2023/10/28 01:04:37;;;;;;;7.70;3.03;;;;;;;17.23;92.29;94202.50;4976338;28;20223;-79
2023/10/28 01:07:03;;;;;;;9.53;2.97;;;;;;;17.18;92.36;94205.94;4980691;28;20227;-77
2023/10/28 01:09:28;;;;;;;11.57;3.40;;;;;;;17.34;91.46;94209.44;4986101;28;20392;-76
2023/10/28 01:11:55;;;;;;;5.80;3.07;;;;;;;17.27;91.32;94207.03;4983780;28;20296;-77
2023/10/28 01:14:21;;;;;;;6.83;3.00;;;;;;;17.24;91.83;94210.19;4976352;28;20279;-78
2023/10/28 01:16:49;;;;;;;8.60;3.17;;;;;;;17.17;92.01;94208.84;4951676;28;20227;-78
2023/10/28 01:19:15;;;;;;;6.80;3.10;;;;;;;17.20;91.41;94203.03;5038095;28;20273;-78
2023/10/28 01:21:42;;;;;;;8.37;3.00;;;;;;;17.12;91.92;94204.34;5040176;28;20325;-76
2023/10/28 01:24:08;;;;;;;8.90;3.43;;;;;;;17.34;90.76;94204.94;5041983;28;20996;-77
2023/10/28 01:26:34;;;;;;;7.17;3.20;;;;;;;17.30;91.59;94214.47;4955877;28;20312;-78
2023/10/28 01:29:00;;;;;;;12.30;3.33;;;;;;;17.11;92.54;94208.03;4970590;28;20284;-76
2023/10/28 01:31:26;;;;;;;14.33;3.67;;;;;;;17.00;93.21;94211.66;4954361;28;20242;-78
2023/10/28 01:33:52;;;;;;;6.70;3.20;;;;;;;16.79;93.88;94209.94;5020053;28;20819;-76
2023/10/28 01:36:17;;;;;;;6.43;3.30;;;;;;;16.93;92.96;94211.09;4986201;28;20223;-77
2023/10/28 01:38:43;;;;;;;8.80;3.60;;;;;;;16.99;92.66;94199.50;4950838;28;20238;-78
2023/10/28 01:41:12;;;;;;;9.73;3.70;;;;;;;16.97;93.53;94208.72;5018053;28;20242;-78
2023/10/28 01:43:40;;;;;;;13.73;3.63;;;;;;;16.98;92.95;94210.34;4973700;28;20239;-76
2023/10/28 01:46:05;;;;;;;8.90;3.80;;;;;;;16.67;94.37;94207.47;4988508;28;20235;-78
2023/10/28 01:48:31;;;;;;;11.87;3.70;;;;;;;16.62;94.05;94191.59;5054954;28;20368;-77
2023/10/28 01:50:56;;;;;;;12.37;3.80;;;;;;;16.77;93.97;94204.91;4979250;28;20910;-78
2023/10/28 01:53:25;;;;;;;10.00;3.73;;;;;;;16.89;92.94;94202.06;5039609;28;20256;-77
2023/10/28 01:55:50;;;;;;;9.80;3.57;;;;;;;17.03;91.86;94199.78;4977721;28;20222;-77
2023/10/28 01:58:17;;;;;;;7.37;3.47;;;;;;;17.07;91.76;94204.31;4942435;28;20314;-76
2023/10/28 02:00:43;;;;;;;8.67;3.20;;;;;;;16.95;92.93;94214.28;4979022;28;20231;-77
2023/10/28 02:03:11;;;;;;;9.10;3.50;;;;;;;16.76;93.53;94221.84;4973676;28;20266;-79
2023/10/28 02:05:37;;;;;;;6.93;3.20;;;;;;;16.79;92.66;94228.44;4970135;28;20227;-78
2023/10/28 02:08:03;;;;;;;9.80;3.33;;;;;;;16.65;93.40;94222.00;5040572;28;20227;-78
2023/10/28 02:10:28;;;;;;;7.93;3.63;;;;;;;16.62;94.52;94222.53;4952266;28;20239;-77
2023/10/28 02:12:54;;;;;;;7.77;3.50;;;;;;;16.57;94.78;94225.94;4987927;28;20224;-77
2023/10/28 02:15:19;;;;;;;12.00;3.57;;;;;;;16.54;94.56;94244.13;5032015;28;20294;-76
2023/10/28 02:17:46;;;;;;;8.57;3.63;;;;;;;16.64;94.21;94236.28;5017937;28;20239;-77
2023/10/28 02:20:13;;;;;;;10.57;3.90;;;;;;;16.62;93.66;94233.88;4986480;28;20630;-78
2023/10/28 02:22:39;;;;;;;10.33;3.60;;;;;;;16.71;93.74;94240.31;4969801;28;20444;-78
2023/10/28 02:25:05;;;;;;;10.43;4.20;;;;;;;16.70;93.17;94241.34;4960827;28;20803;-77
2023/10/28 02:27:30;;;;;;;11.60;4.17;;;;;;;16.70;92.75;94237.88;4994284;28;20633;-78
2023/10/28 02:29:56;;;;;;;8.60;4.00;;;;;;;16.86;92.53;94239.59;5038491;28;20739;-77
2023/10/28 02:32:21;;;;;;;8.67;3.80;;;;;;;16.75;92.78;94243.22;4991171;28;20239;-78
2023/10/28 02:34:46;;;;;;;10.10;4.10;;;;;;;16.57;93.25;94239.13;5046267;28;20232;-78
2023/10/28 02:37:14;;;;;;;6.97;3.53;;;;;;;16.49;94.06;94233.47;5045986;28;20764;-77
2023/10/28 02:39:39;;;;;;;9.00;3.70;;;;;;;16.34;94.92;94238.63;4960583;28;20236;-78
2023/10/28 02:42:05;;;;;;;8.83;3.80;;;;;;;16.44;94.48;94221.03;5027587;28;20243;-75
2023/10/28 02:44:30;;;;;;;9.60;3.77;;;;;;;16.52;95.14;94233.81;4952870;28;20241;-70
2023/10/28 02:46:56;;;;;;;8.17;3.70;;;;;;;16.28;95.48;94234.38;4992508;28;20232;-71
2023/10/28 02:49:22;;;;;;;10.03;3.80;;;;;;;16.29;96.05;94235.97;4941498;28;20628;-70
2023/10/28 02:51:47;;;;;;;11.67;4.03;;;;;;;16.18;96.39;94230.59;4948503;28;20288;-69
2023/10/28 02:54:16;;;;;;;8.33;3.53;;;;;;;16.21;95.60;94234.56;4983812;28;20848;-70
2023/10/28 02:56:41;;;;;;;13.03;3.70;;;;;;;16.18;96.04;94241.16;4980632;28;20244;-71
2023/10/28 02:59:07;;;;;;;7.80;3.20;;;;;;;16.04;96.56;94237.31;4928790;28;20242;-69
2023/10/28 03:01:36;;;;;;;7.73;3.53;;;;;;;16.16;96.54;94248.53;4958422;28;20238;-69
2023/10/28 03:04:03;;;;;;;8.57;3.60;;;;;;;15.99;97.01;94245.19;4959008;28;20271;-77
2023/10/28 03:06:28;;;;;;;10.50;3.80;;;;;;;16.03;96.56;94240.19;4919828;28;20236;-77
2023/10/28 03:08:54;;;;;;;11.40;3.93;;;;;;;15.84;97.12;94237.09;4962911;28;20316;-77
2023/10/28 03:11:20;;;;;;;10.73;3.90;;;;;;;16.00;96.60;94235.44;4953081;28;20308;-78
2023/10/28 03:13:46;;;;;;;9.90;4.10;;;;;;;16.10;96.51;94235.50;4975241;28;20286;-78
2023/10/28 03:16:30;;;;;;;11.27;4.00;;;;;;;15.95;96.66;94235.38;4933778;28;20229;-78
2023/10/28 03:18:56;;;;;;;8.83;3.70;;;;;;;15.62;98.42;94246.88;4965959;28;20239;-78
2023/10/28 03:21:21;;;;;;;10.70;3.87;;;;;;;15.76;97.76;94242.81;4974269;28;20246;-77
2023/10/28 03:23:47;;;;;;;9.93;3.80;;;;;;;15.94;97.12;94255.69;4977516;28;20233;-77
2023/10/28 03:26:12;;;;;;;9.23;3.73;;;;;;;15.85;97.48;94254.56;4943576;28;20605;-78
2023/10/28 03:28:38;;;;;;;10.40;3.70;;;;;;;16.00;97.62;94257.31;4992283;28;20238;-78
2023/10/28 03:31:10;;;;;;;8.13;3.43;;;;;;;16.02;96.95;94267.66;4946012;28;20231;-77
2023/10/28 03:33:37;;;;;;;12.03;3.63;;;;;;;16.03;96.72;94272.69;4950850;28;20255;-77
2023/10/28 03:36:04;;;;;;;9.63;3.97;;;;;;;15.98;97.14;94267.34;4943933;28;20232;-78
2023/10/28 03:38:29;;;;;;;10.80;3.90;;;;;;;15.77;97.74;94256.81;4959384;28;20236;-78
2023/10/28 03:40:55;;;;;;;7.67;3.90;;;;;;;15.72;98.04;94254.91;4952813;28;20303;-78
2023/10/28 03:43:21;;;;;;;8.23;3.60;;;;;;;15.71;98.49;94261.25;4988687;28;20234;-77
2023/10/28 03:45:46;;;;;;;7.17;3.67;;;;;;;15.75;98.10;94258.91;5038260;28;20240;-77
2023/10/28 03:48:11;;;;;;;8.73;3.63;;;;;;;15.76;97.55;94266.56;5037972;28;20235;-78
2023/10/28 03:50:37;;;;;;;8.63;3.97;;;;;;;15.73;98.75;94277.63;4982648;28;20227;-76
2023/10/28 03:53:02;;;;;;;9.00;3.90;;;;;;;15.71;98.38;94276.28;5043808;28;20236;-77
2023/10/28 03:55:28;;;;;;;9.23;3.73;;;;;;;15.68;98.72;94276.78;4987990;28;20235;-76
2023/10/28 03:57:55;;;;;;;9.43;3.80;;;;;;;15.67;98.95;94275.16;5030012;28;20325;-76
2023/10/28 04:00:21;;;;;;;11.30;3.73;;;;;;;15.71;98.17;94278.91;5058077;28;20223;-69
2023/10/28 04:02:47;;;;;;;14.90;4.13;;;;;;;15.69;98.87;94289.69;5023446;28;20224;-70
2023/10/28 04:05:12;;;;;;;9.63;4.10;;;;;;;15.84;98.11;94289.09;4984575;28;20292;-70
2023/10/28 04:07:39;;;;;;;9.03;4.17;;;;;;;15.81;98.36;94294.88;4981225;28;20242;-70
2023/10/28 04:10:07;;;;;;;11.53;4.13;;;;;;;15.81;98.17;94294.88;4965162;28;20340;-70
2023/10/28 04:12:33;;;;;;;9.77;4.40;;;;;;;15.76;98.39;94295.59;4938568;28;20236;-71
2023/10/28 04:14:58;;;;;;;8.77;3.83;;;;;;;15.53;99.59;94293.22;5025741;28;20245;-69
2023/10/28 04:17:24;;;;;;;7.87;3.73;;;;;;;15.55;99.52;94290.34;4968838;28;20231;-70
2023/10/28 04:19:50;;;;;;;11.03;4.20;;;;;;;15.67;98.91;94301.53;4979460;28;20231;-71
2023/10/28 04:22:15;;;;;;;10.43;3.83;;;;;;;15.56;99.26;94303.28;5020632;28;20241;-70
2023/10/28 04:24:41;;;;;;;10.13;3.70;;;;;;;15.56;99.77;94299.84;5033482;28;20236;-70
2023/10/28 04:27:07;;;;;;;14.87;3.70;;;;;;;15.63;99.07;94303.88;5036013;28;20262;-70
2023/10/28 04:29:32;;;;;;;8.03;3.90;;;;;;;15.74;99.12;94307.47;5023393;28;20235;-70
2023/10/28 04:31:58;;;;;;;8.57;4.00;;;;;;;15.76;98.84;94315.94;5058394;28;20227;-69
2023/10/28 04:34:23;;;;;;;9.47;4.13;;;;;;;15.46;99.60;94317.13;5040054;28;20300;-69
2023/10/28 04:36:49;;;;;;;9.27;4.17;;;;;;;15.47;99.67;94304.75;4986505;28;20243;-70
2023/10/28 04:39:14;;;;;;;10.70;3.80;;;;;;;15.40;100.00;94312.00;5027660;28;20232;-69
2023/10/28 04:41:40;;;;;;;11.23;4.30;;;;;;;15.22;100.00;94307.81;5010590;28;20228;-70
2023/10/28 04:44:05;;;;;;;10.63;4.27;;;;;;;15.31;100.00;94316.09;4993989;28;20788;-77
2023/10/28 04:46:31;;;;;;;9.37;4.23;;;;;;;15.33;100.00;94314.81;4989290;28;20268;-77
2023/10/28 04:48:56;;;;;;;11.40;3.87;;;;;;;15.40;100.00;94315.41;5034178;28;20232;-76
2023/10/28 04:51:22;;;;;;;8.50;3.90;;;;;;;15.34;100.00;94321.69;5007134;28;20238;-77
2023/10/28 04:53:48;;;;;;;13.07;4.27;;;;;;;15.16;100.00;94318.53;5016358;28;20228;-77
2023/10/28 04:56:13;;;;;;;9.70;4.10;;;;;;;15.32;100.00;94321.13;5006307;28;20726;-78
2023/10/28 04:58:38;;;;;;;12.90;4.30;;;;;;;15.45;100.00;94336.63;4987377;28;20239;-76
2023/10/28 05:01:04;;;;;;;9.47;4.10;;;;;;;15.39;100.00;94340.22;4988191;28;20267;-76
2023/10/28 05:03:29;;;;;;;11.23;4.40;;;;;;;15.01;100.00;94328.84;4988658;28;20569;-77
2023/10/28 05:05:55;;;;;;;12.37;4.40;;;;;;;15.20;100.00;94338.88;4983044;28;20242;-76
2023/10/28 05:08:21;;;;;;;9.30;4.40;;;;;;;15.05;100.00;94329.94;4975948;28;20232;-77
2023/10/28 05:10:46;;;;;;;10.03;4.70;;;;;;;15.08;100.00;94335.53;4997078;28;20280;-76
2023/10/28 05:13:12;;;;;;;11.67;4.30;;;;;;;15.17;100.00;94342.00;4984432;28;20270;-77
2023/10/28 05:15:38;;;;;;;14.03;4.47;;;;;;;15.15;100.00;94351.19;4977638;28;20240;-77
2023/10/28 05:18:04;;;;;;;14.43;5.00;;;;;;;15.14;100.00;94352.25;4967407;28;20256;-76
2023/10/28 05:20:33;;;;;;;13.27;5.30;;;;;;;15.06;100.00;94348.16;5003938;28;20315;-70
2023/10/28 05:22:58;;;;;;;14.03;4.97;;;;;;;14.98;100.00;94371.47;4984558;28;20255;-69
2023/10/28 05:25:24;;;;;;;12.77;4.70;;;;;;;15.01;100.00;94374.44;5002597;28;20315;-70
2023/10/28 05:27:50;;;;;;;15.50;5.17;;;;;;;15.00;100.00;94372.06;5025970;28;20223;-70
2023/10/28 05:30:16;;;;;;;16.97;5.20;;;;;;;14.96;100.00;94368.28;5000269;28;20769;-70
2023/10/28 05:32:41;;;;;;;20.10;5.40;;;;;;;15.07;100.00;94375.34;5023791;28;20315;-71
2023/10/28 05:35:11;;;;;;;12.87;5.40;;;;;;;15.20;100.00;94378.44;4986674;28;20243;-70
2023/10/28 05:37:37;;;;;;;18.87;5.33;;;;;;;15.13;100.00;94375.16;4976826;28;20223;-70
2023/10/28 05:40:04;;;;;;;14.93;5.50;;;;;;;15.17;100.00;94381.53;4978521;28;20255;-69
2023/10/28 05:42:36;;;;;;;16.17;5.70;;;;;;;15.26;100.00;94381.94;5032323;28;20237;-71
2023/10/28 05:45:02;;;;;;;13.23;5.90;;;;;;;15.34;100.00;94394.72;4962387;28;20246;-70
2023/10/28 05:47:27;;;;;;;16.17;5.80;;;;;;;15.35;100.00;94398.97;4965039;28;20239;-71
2023/10/28 05:49:55;;;;;;;12.33;5.47;;;;;;;15.32;100.00;94397.59;4986633;28;20223;-71
2023/10/28 05:52:20;;;;;;;14.53;6.03;;;;;;;15.35;100.00;94402.41;5033950;28;20235;-70
2023/10/28 05:54:46;;;;;;;13.50;5.60;;;;;;;15.36;100.00;94398.69;5035761;28;20242;-71
2023/10/28 05:57:11;;;;;;;16.10;5.80;;;;;;;15.28;100.00;94407.03;5035773;28;20310;-70
2023/10/28 05:59:39;;;;;;;13.80;5.63;;;;;;;15.22;100.00;94407.19;4956064;28;20284;-70
2023/10/28 06:02:05;;;;;;;12.53;5.50;;;;;;;15.23;100.00;94416.69;4940485;28;20259;-71
2023/10/28 06:04:31;;;;;;;14.63;6.07;;;;;;;15.28;100.00;94428.13;5009551;28;20238;-69
2023/10/28 06:06:57;;;;;;;14.87;6.00;;;;;;;15.35;100.00;94425.31;4971597;28;20234;-70
2023/10/28 06:09:23;;;;;;;15.40;5.77;;;;;;;15.35;100.00;94438.50;4985653;28;20664;-69
2023/10/28 06:11:50;;;;;;;18.07;7.07;;;;;;;15.54;100.00;94429.34;5021770;28;20246;-72
2023/10/28 06:14:15;;;;;;;13.33;6.13;;;;;;;15.67;100.00;94430.81;4970095;28;20772;-70
2023/10/28 06:16:41;;;;;;;19.30;6.53;;;;;;;15.68;100.00;94427.16;4988278;28;20244;-71
2023/10/28 06:19:07;;;;;;;17.07;7.10;;;;;;;15.70;100.00;94427.69;5036456;28;20857;-72
2023/10/28 06:21:33;;;;;;;17.17;6.50;;;;;;;15.79;100.00;94444.72;5036392;28;20223;-70
2023/10/28 06:23:58;;;;;;;19.77;7.13;;;;;;;15.91;99.93;94448.03;4938825;28;20225;-71
2023/10/28 06:26:24;;;;;;;16.13;7.77;;;;;;;15.90;99.94;94446.47;4983988;28;20769;-71
2023/10/28 06:28:49;;;;;;;20.37;8.40;;;;;;;15.88;100.00;94446.69;5032703;28;20854;-71
2023/10/28 06:31:15;;;;;;;21.30;7.70;;;;;;;16.02;99.34;94453.25;5035297;28;20241;-69
2023/10/28 06:33:41;;;;;;;18.53;7.50;;;;;;;16.15;98.79;94460.78;5036735;28;20274;-70
2023/10/28 06:36:11;;;;;;;21.70;7.67;;;;;;;16.20;99.73;94475.91;5037244;28;20262;-71
2023/10/28 06:38:36;;;;;;;24.30;9.17;;;;;;;16.32;99.38;94473.94;5019108;28;20322;-77
2023/10/28 06:41:11;;;;;;;24.50;10.60;;;;;;;16.34;99.79;94484.25;4990194;28;20236;-79
2023/10/28 06:43:37;;;;;;;31.90;12.90;;;;;;;16.44;98.97;94479.91;4977615;28;20227;-78
2023/10/28 06:46:04;;;;;;;22.53;9.83;;;;;;;16.46;99.01;94482.28;4976457;28;20918;-77
2023/10/28 06:48:30;;;;;;;17.17;7.40;;;;;;;16.45;99.66;94478.88;4982070;28;20900;-78
2023/10/28 06:50:55;;;;;;;19.93;7.50;;;;;;;16.34;100.00;94489.53;4981382;28;20290;-78
2023/10/28 06:53:21;;;;;;;19.47;7.53;;;;;;;16.50;100.00;94502.69;4960983;28;20236;-76
2023/10/28 06:55:49;;;;;;;25.17;8.07;;;;;;;16.59;99.81;94503.91;5045379;28;20295;-79
2023/10/28 06:58:15;;;;;;;23.70;9.07;;;;;;;16.66;98.40;94499.22;4984306;28;20292;-77
2023/10/28 07:00:41;;;;;;;20.70;9.40;;;;;;;16.81;96.80;94490.66;4985909;28;20827;-78
2023/10/28 07:03:06;;;;;;;18.10;8.80;;;;;;;16.87;97.75;94510.81;4983911;28;20312;-78
2023/10/28 07:05:32;;;;;;;21.07;8.63;;;;;;;16.89;97.10;94513.19;4974780;28;20262;-77
2023/10/28 07:08:00;;;;;;;23.10;7.93;;;;;;;17.06;96.16;94504.13;4980541;28;20306;-77
2023/10/28 07:10:26;;;;;;;17.87;8.07;;;;;;;17.13;95.56;94515.31;5023940;28;20247;-70
2023/10/28 07:12:51;;;;;;;15.63;6.73;;;;;;;17.09;94.78;94516.88;4988700;28;20239;-67
2023/10/28 07:15:17;;;;;;;16.23;6.20;;;;;;;17.13;93.99;94519.78;4975481;28;20223;-70
2023/10/28 07:17:43;;;;;;;12.10;6.00;;;;;;;17.13;93.89;94530.38;4987605;28;20295;-71
2023/10/28 07:20:09;;;;;;;11.90;5.80;;;;;;;17.14;94.10;94540.72;5047822;28;20228;-71
2023/10/28 07:22:34;;;;;;;13.77;6.00;;;;;;;17.21;92.87;94541.31;5044623;28;20230;-69
2023/10/28 07:25:00;;;;;;;16.80;6.30;;;;;;;17.31;92.31;94546.72;4970692;28;20247;-71
2023/10/28 07:27:32;;;;;;;11.10;5.90;;;;;;;17.31;92.83;94541.44;4948566;28;20258;-71
2023/10/28 07:29:59;;;;;;;10.50;5.80;;;;;;;17.38;91.89;94531.44;4972860;28;20231;-70
2023/10/28 07:32:25;;;;;;;11.97;5.43;;;;;;;17.36;90.88;94538.03;4989544;28;20632;-69
2023/10/28 07:34:50;;;;;;;12.13;5.83;;;;;;;17.37;91.59;94532.47;4991180;28;20247;-70
2023/10/28 07:37:16;;;;;;;9.97;5.37;;;;;;;17.40;91.59;94524.06;5041034;28;20223;-70
2023/10/28 07:39:43;;;;;;;16.10;5.37;;;;;;;17.45;91.58;94536.53;5056945;28;20710;-70
2023/10/28 07:42:08;;;;;;;13.63;5.30;;;;;;;17.49;90.61;94533.13;5042020;28;20364;-77
2023/10/28 07:44:34;;;;;;;14.63;5.77;;;;;;;17.59;90.75;94531.63;4965707;28;20239;-77
2023/10/28 07:47:00;;;;;;;12.13;5.70;;;;;;;17.64;90.42;94529.84;4976672;28;20717;-76
2023/10/28 07:49:25;;;;;;;15.63;5.90;;;;;;;17.66;90.52;94540.16;4949441;28;20235;-77
2023/10/28 07:51:51;;;;;;;12.87;6.00;;;;;;;17.72;90.23;94541.81;4990184;28;20223;-78
2023/10/28 07:54:16;;;;;;;12.40;5.43;;;;;;;17.77;90.45;94533.91;4958264;28;20230;-77
2023/10/28 07:56:42;;;;;;;10.27;5.10;;;;;;;17.82;90.09;94547.16;4985370;28;20231;-71
2023/10/28 07:59:11;;;;;;;12.77;5.70;;;;;;;17.90;89.40;94533.47;4974155;28;20819;-69
2023/10/28 08:01:39;;;;;;;13.10;5.33;;;;;;;17.99;88.74;94545.19;5039390;28;20246;-70
2023/10/28 08:04:05;;;;;;;13.03;5.03;;;;;;;18.03;88.21;94548.94;4945819;28;20237;-70
2023/10/28 08:06:30;;;;;;;11.57;5.13;;;;;;;18.08;88.58;94546.31;4960851;28;20239;-71
2023/10/28 08:08:56;;;;;;;11.90;4.60;;;;;;;18.04;88.93;94550.53;4957475;28;20231;-70
2023/10/28 08:11:24;;;;;;;11.13;4.40;;;;;;;18.24;88.39;94550.66;5043000;28;20234;-70
2023/10/28 08:13:50;;;;;;;10.30;3.87;;;;;;;18.36;87.57;94548.63;5039788;28;20700;-69
2023/10/28 08:16:18;;;;;;;11.67;3.83;;;;;;;18.54;86.57;94544.75;4952403;28;20243;-70
2023/10/28 08:18:45;;;;;;;16.50;4.30;;;;;;;18.60;86.16;94541.91;4981566;28;20239;-70
2023/10/28 08:21:13;;;;;;;10.57;4.00;;;;;;;18.69;86.56;94542.19;5011113;28;20229;-71
2023/10/28 08:23:38;;;;;;;10.20;4.33;;;;;;;18.79;85.96;94555.50;4978515;28;20326;-69
2023/10/28 08:26:17;;;;;;;11.90;4.10;;;;;;;18.74;85.91;94545.66;4971615;28;20243;-71
2023/10/28 08:28:43;;;;;;;12.40;4.43;;;;;;;18.89;85.97;94546.78;4957618;28;20236;-69
2023/10/28 08:31:09;;;;;;;12.20;4.40;;;;;;;18.96;85.85;94552.66;5000477;28;20247;-69
2023/10/28 08:33:35;;;;;;;14.13;4.60;;;;;;;19.04;84.13;94546.81;5026148;28;21248;-69
2023/10/28 08:36:01;;;;;;;12.30;4.20;;;;;;;19.11;84.44;94556.13;4973040;28;20236;-71
2023/10/28 08:38:27;;;;;;;14.03;4.97;;;;;;;19.04;84.55;94563.53;4988816;28;20264;-71
2023/10/28 08:40:53;;;;;;;13.00;5.20;;;;;;;19.20;84.33;94556.44;5035298;28;20223;-70
2023/10/28 08:43:19;;;;;;;18.07;4.87;;;;;;;19.39;83.47;94560.22;4977667;28;20645;-69
2023/10/28 08:45:45;;;;;;;15.93;4.80;;;;;;;19.51;83.02;94565.28;4961824;28;20231;-70
2023/10/28 08:48:14;;;;;;;11.60;4.43;;;;;;;19.61;82.50;94571.41;5039135;28;20238;-70
2023/10/28 08:50:40;;;;;;;15.03;4.97;;;;;;;19.75;81.96;94569.03;5036990;28;20247;-70
2023/10/28 08:53:06;;;;;;;14.53;4.73;;;;;;;19.79;80.93;94560.28;5026899;28;20235;-77
2023/10/28 08:55:32;;;;;;;12.90;5.00;;;;;;;19.80;80.59;94561.09;4959691;28;20314;-77
2023/10/28 08:57:58;;;;;;;15.40;4.77;;;;;;;19.92;80.72;94567.72;4946890;28;20988;-77
2023/10/28 09:00:26;;;;;;;10.83;4.13;;;;;;;19.98;79.59;94568.50;4976987;28;20228;-77
2023/10/28 09:02:52;;;;;;;14.70;4.40;;;;;;;19.97;79.90;94567.72;5054333;28;21004;-79
2023/10/28 09:05:19;;;;;;;10.73;3.83;;;;;;;20.02;79.62;94564.25;4982547;28;20235;-78
2023/10/28 09:07:45;;;;;;;14.50;4.00;;;;;;;20.12;80.65;94573.03;4961272;28;20232;-78
2023/10/28 09:10:12;;;;;;;12.47;3.97;;;;;;;20.16;78.61;94570.63;4988978;28;20288;-78
2023/10/28 09:12:38;;;;;;;14.30;4.10;;;;;;;20.25;78.82;94565.59;5042016;28;20219;-78
2023/10/28 09:15:04;;;;;;;11.63;3.40;;;;;;;20.26;77.56;94561.88;4959193;28;20228;-77
2023/10/28 09:17:29;;;;;;;10.47;3.40;;;;;;;20.16;78.12;94566.09;4944240;28;20265;-78
2023/10/28 09:19:56;;;;;;;9.60;3.07;;;;;;;20.21;76.23;94557.31;4990907;28;20239;-78
2023/10/28 09:22:21;;;;;;;12.27;3.73;;;;;;;20.36;75.66;94557.34;4976032;28;20354;-78
2023/10/28 09:24:47;;;;;;;9.93;3.23;;;;;;;20.39;76.63;94564.00;4937896;28;20223;-78
2023/10/28 09:27:13;;;;;;;12.93;3.60;;;;;;;20.33;76.02;94557.88;4976711;28;20235;-77
2023/10/28 09:29:41;;;;;;;11.63;3.73;;;;;;;20.30;77.08;94558.41;5039749;28;20646;-78
2023/10/28 09:32:08;;;;;;;9.60;3.23;;;;;;;20.44;75.73;94561.31;4971716;28;20231;-78
2023/10/28 09:34:38;;;;;;;11.60;3.33;;;;;;;20.51;75.04;94557.31;4975590;28;20272;-76
2023/10/28 09:37:06;;;;;;;7.40;2.43;;;;;;;20.87;70.41;94554.56;5039897;28;20231;-79
2023/10/28 09:39:33;;;;;;;8.83;3.00;;;;;;;21.00;70.84;94559.28;4958090;28;20247;-79
2023/10/28 09:41:59;;;;;;;8.77;2.30;;;;;;;21.16;67.07;94556.31;5021688;28;20231;-75
2023/10/28 09:44:25;;;;;;;10.17;2.53;;;;;;;21.28;66.50;94556.78;4960321;28;20712;-76
2023/10/28 09:46:51;;;;;;;10.57;2.27;;;;;;;21.45;66.53;94561.75;4955150;28;20247;-78
2023/10/28 09:49:17;;;;;;;5.60;1.90;;;;;;;21.48;65.68;94553.22;4936686;28;20233;-78
2023/10/28 09:51:43;;;;;;;10.03;2.30;;;;;;;21.58;63.39;94544.34;4955364;28;20243;-78
2023/10/28 09:54:11;;;;;;;7.33;1.83;;;;;;;21.71;62.47;94555.19;4953403;28;20228;-75
2023/10/28 09:56:37;;;;;;;7.83;2.10;;;;;;;21.83;61.88;94557.50;4965252;28;21000;-78
2023/10/28 09:59:19;;;;;;;11.00;2.57;;;;;;;21.87;61.12;94553.25;4965674;28;20281;-78
2023/10/28 10:01:53;;;;;;;8.57;1.97;;;;;;;21.86;60.60;94549.78;4958264;28;20231;-77
2023/10/28 10:04:30;;;;;;;7.57;1.80;;;;;;;21.88;60.44;94550.28;4980419;28;20239;-77
2023/10/28 10:06:55;;;;;;;7.57;1.70;;;;;;;22.02;60.14;94545.09;4954403;28;20980;-77
2023/10/28 10:09:21;;;;;;;7.77;2.20;;;;;;;22.08;60.59;94538.66;5039762;28;20257;-70
2023/10/28 10:11:49;;;;;;;6.50;1.87;;;;;;;22.02;60.52;94540.56;4954396;28;20263;-70
2023/10/28 10:14:14;;;;;;;5.67;1.70;;;;;;;22.21;58.51;94527.34;5017869;28;20324;-69
2023/10/28 10:16:43;;;;;;;5.90;1.77;;;;;;;22.18;59.11;94525.25;4948094;28;20292;-70
2023/10/28 10:19:16;;;;;;;10.50;1.90;;;;;;;22.39;56.57;94539.19;4980063;28;20325;-70
2023/10/28 10:21:51;;;;;;;7.23;2.00;;;;;;;22.53;55.39;94529.44;5037628;28;20257;-71
2023/10/28 10:24:18;;;;;;;5.30;1.90;;;;;;;22.42;52.67;94531.44;4938912;28;20242;-70
2023/10/28 10:26:58;;;;;;;5.43;1.60;;;;;;;22.54;52.52;94518.50;4962594;28;20263;-69
2023/10/28 10:29:27;;;;;;;8.53;1.87;;;;;;;;;;4952731;28;20243;-70
2023/10/28 10:31:52;;;;;;;6.60;1.77;;;;;;;22.66;53.06;94523.47;5050152;28;20248;-71
2023/10/28 10:34:32;;;;;;;6.57;1.63;;;;;;;22.75;50.53;94525.22;4952481;28;20231;-70
2023/10/28 10:36:57;;;;;;;6.60;1.67;;;;;;;22.83;51.48;94523.00;5036422;28;20223;-70
2023/10/28 10:39:23;;;;;;;6.37;1.83;;;;;;;22.84;50.43;94522.72;5050026;28;20595;-69
2023/10/28 10:41:52;;;;;;;6.07;1.80;;;;;;;22.92;52.08;94523.97;5040033;28;20247;-70
2023/10/28 10:44:34;;;;;;;8.37;1.80;;;;;;;23.09;50.92;94524.28;5035086;28;20250;-71
2023/10/28 10:47:00;;;;;;;6.50;1.70;;;;;;;23.07;50.43;94529.88;5038742;28;20235;-70
2023/10/28 10:49:25;;;;;;;8.90;1.80;;;;;;;23.08;49.28;94522.69;5044155;28;20236;-70
2023/10/28 10:51:51;;;;;;;4.13;1.43;;;;;;;23.12;48.30;94519.16;5058816;28;20255;-70
2023/10/28 10:54:17;;;;;;;5.63;1.70;;;;;;;23.17;50.06;94518.28;5033962;28;20228;-70
2023/10/28 10:56:43;;;;;;;8.27;1.90;;;;;;;23.10;49.75;94507.16;5051343;28;20683;-70
2023/10/28 10:59:12;;;;;;;4.50;1.63;;;;;;;23.16;50.36;94500.69;5039300;28;20220;-72
2023/10/28 11:01:40;;;;;;;8.77;1.90;;;;;;;23.26;50.01;94511.25;5042215;28;20240;-78
2023/10/28 11:04:06;;;;;;;6.07;1.90;;;;;;;23.24;50.07;94508.03;5040484;28;20859;-78
2023/10/28 11:06:32;;;;;;;3.40;1.63;;;;;;;23.20;50.69;94504.38;5039394;28;20254;-79
2023/10/28 11:09:01;;;;;;;6.10;1.90;;;;;;;23.38;50.08;94514.31;5054697;28;20252;-77
2023/10/28 11:11:27;;;;;;;6.87;2.00;;;;;;;23.27;51.54;94510.13;5038895;28;20681;-78
2023/10/28 11:13:52;;;;;;;5.68;2.25;;;;;;;23.18;51.93;94518.00;5041143;28;20225;-75
2023/10/28 11:16:20;;;;;;;7.10;2.00;;;;;;;23.21;50.23;94503.28;5023686;28;20212;-78
2023/10/28 11:18:46;;;;;;;7.20;1.77;;;;;;;23.31;51.51;94513.81;5037445;28;20269;-77
2023/10/28 11:21:21;;;;;;;6.38;1.70;;;;;;;23.29;50.75;94503.44;5038796;28;20917;-82
2023/10/28 11:23:47;;;;;;;8.40;1.83;;;;;;;23.34;50.84;94516.72;5038666;28;20303;-76
2023/10/28 11:26:17;;;;;;;5.00;1.70;;;;;;;23.22;50.24;94510.22;5068422;28;20243;-76